createdAt,value
2023-03-17T00:01:56.019Z,0.50
2023-03-17T00:04:25.957Z,0.40
2023-03-17T00:06:55.727Z,0.40
2023-03-17T00:09:24.162Z,0.60
2023-03-17T00:11:53.595Z,0.50
2023-03-17T00:14:22.060Z,0.50
2023-03-17T00:16:52.744Z,0.60
2023-03-17T00:19:44.624Z,0.50
2023-03-17T00:22:17.322Z,0.70
2023-03-17T00:24:45.795Z,0.50
2023-03-17T00:27:16.934Z,0.50
2023-03-17T00:29:45.299Z,0.60
2023-03-17T00:32:17.890Z,1.02
2023-03-17T00:34:47.711Z,0.60
2023-03-17T00:37:16.052Z,0.55
2023-03-17T00:39:44.443Z,0.45
2023-03-17T00:42:12.998Z,0.50
2023-03-17T00:44:41.577Z,0.60
2023-03-17T00:47:13.190Z,0.50
2023-03-17T00:49:41.653Z,0.65
2023-03-17T00:52:11.566Z,0.60
2023-03-17T00:54:40.147Z,0.60
2023-03-17T00:57:11.198Z,0.80
2023-03-17T00:59:42.374Z,0.63
2023-03-17T01:02:12.401Z,0.60
2023-03-17T01:04:41.856Z,0.60
2023-03-17T01:07:14.203Z,0.80
2023-03-17T01:09:43.908Z,0.60
2023-03-17T01:12:14.193Z,0.80
2023-03-17T01:14:43.683Z,0.80
2023-03-17T01:17:16.895Z,0.73
2023-03-17T01:19:45.705Z,0.70
2023-03-17T01:22:15.444Z,0.95
2023-03-17T01:24:43.857Z,0.80
2023-03-17T01:27:12.922Z,0.80
2023-03-17T01:29:43.139Z,1.00
2023-03-17T01:32:11.793Z,0.80
2023-03-17T01:34:40.750Z,0.60
2023-03-17T01:37:09.810Z,0.60
2023-03-17T01:39:39.857Z,0.85
2023-03-17T01:42:08.790Z,0.60
2023-03-17T01:44:37.121Z,0.70
2023-03-17T01:47:05.634Z,0.80
2023-03-17T01:49:38.207Z,0.88
2023-03-17T01:52:10.269Z,0.70
2023-03-17T01:54:48.384Z,0.63
2023-03-17T01:57:20.382Z,0.80
2023-03-17T01:59:53.267Z,0.73
2023-03-17T02:02:25.802Z,0.80
2023-03-17T02:04:54.636Z,1.00
2023-03-17T02:07:26.696Z,0.70
2023-03-17T02:09:58.120Z,1.05
2023-03-17T02:12:29.079Z,0.88
2023-03-17T02:14:58.645Z,0.95
2023-03-17T02:17:29.010Z,1.30
2023-03-17T02:19:57.858Z,1.20
2023-03-17T02:22:28.099Z,0.70
2023-03-17T02:24:59.514Z,0.80
2023-03-17T02:27:36.230Z,0.98
2023-03-17T02:30:07.008Z,0.73
2023-03-17T02:32:36.607Z,0.70
2023-03-17T02:35:07.245Z,0.82
2023-03-17T02:37:37.094Z,0.80
2023-03-17T02:40:06.088Z,1.58
2023-03-17T02:42:35.773Z,1.15
2023-03-17T02:45:04.282Z,1.13
2023-03-17T02:47:32.688Z,0.80
2023-03-17T02:50:01.176Z,1.02
2023-03-17T02:52:29.700Z,1.15
2023-03-17T02:54:59.478Z,0.93
2023-03-17T02:57:27.840Z,1.02
2023-03-17T02:59:57.257Z,1.42
2023-03-17T03:02:25.640Z,1.08
2023-03-17T03:04:54.326Z,1.05
2023-03-17T03:07:22.857Z,1.00
2023-03-17T03:09:51.288Z,1.13
2023-03-17T03:12:21.131Z,1.20
2023-03-17T03:14:49.505Z,1.05
2023-03-17T03:17:18.056Z,1.50
2023-03-17T03:19:46.360Z,1.13
2023-03-17T03:22:14.758Z,0.80
2023-03-17T03:24:44.064Z,0.73
2023-03-17T03:27:12.687Z,1.00
2023-03-17T03:29:42.502Z,1.10
2023-03-17T03:32:12.137Z,1.40
2023-03-17T03:34:40.490Z,0.80
2023-03-17T03:37:09.172Z,1.35
2023-03-17T03:39:37.788Z,1.10
2023-03-17T03:42:07.115Z,1.10
2023-03-17T03:44:35.510Z,1.20
2023-03-17T03:47:06.370Z,0.68
2023-03-17T03:49:34.760Z,1.00
2023-03-17T03:52:03.101Z,1.00
2023-03-17T03:54:31.572Z,0.75
2023-03-17T03:56:59.970Z,1.05
2023-03-17T03:59:28.464Z,0.88
2023-03-17T04:01:56.930Z,0.90
2023-03-17T04:04:27.208Z,0.90
2023-03-17T04:06:55.853Z,1.20
2023-03-17T04:09:24.238Z,0.85
2023-03-17T04:11:52.547Z,1.13
2023-03-17T04:14:20.876Z,0.80
2023-03-17T04:16:49.269Z,0.85
2023-03-17T04:19:17.676Z,0.85
2023-03-17T04:21:47.456Z,1.17
2023-03-17T04:24:16.036Z,0.98
2023-03-17T04:26:44.451Z,1.00
2023-03-17T04:29:15.694Z,1.30
2023-03-17T04:31:44.189Z,1.00
2023-03-17T04:34:16.905Z,0.98
2023-03-17T04:36:47.862Z,1.00
2023-03-17T04:39:16.847Z,1.20
2023-03-17T04:41:45.650Z,0.88
2023-03-17T04:44:14.530Z,1.13
2023-03-17T04:46:43.108Z,1.02
2023-03-17T04:49:12.160Z,0.90
2023-03-17T04:51:40.580Z,0.95
2023-03-17T04:54:10.294Z,1.15
2023-03-17T04:56:38.688Z,1.52
2023-03-17T04:59:07.093Z,1.40
2023-03-17T05:01:37.960Z,1.25
2023-03-17T05:04:08.123Z,0.98
2023-03-17T05:06:37.374Z,1.10
2023-03-17T05:09:05.867Z,0.90
2023-03-17T05:11:35.597Z,1.42
2023-03-17T05:14:04.291Z,1.60
2023-03-17T05:16:32.655Z,0.93
2023-03-17T05:19:01.133Z,1.48
2023-03-17T05:21:29.526Z,1.25
2023-03-17T05:23:57.845Z,1.80
2023-03-17T05:26:27.188Z,2.10
2023-03-17T05:28:56.900Z,1.92
2023-03-17T05:31:25.414Z,1.80
2023-03-17T05:33:53.836Z,1.38
2023-03-17T05:36:22.691Z,2.28
2023-03-17T05:38:51.221Z,1.70
2023-03-17T05:41:19.638Z,1.88
2023-03-17T05:43:48.043Z,1.45
2023-03-17T05:46:20.266Z,2.28
2023-03-17T05:48:48.965Z,2.65
2023-03-17T05:51:17.427Z,2.05
2023-03-17T05:53:46.014Z,2.05
2023-03-17T05:56:14.561Z,1.67
2023-03-17T05:58:42.938Z,2.13
2023-03-17T06:01:11.361Z,2.97
2023-03-17T06:03:42.091Z,2.75
2023-03-17T06:06:10.641Z,2.78
2023-03-17T06:08:39.007Z,3.03
2023-03-17T06:11:08.870Z,3.30
2023-03-17T06:13:37.337Z,3.42
2023-03-17T06:16:06.018Z,4.63
2023-03-17T06:18:34.429Z,5.03
2023-03-17T06:21:04.968Z,4.50
2023-03-17T06:23:33.612Z,4.32
2023-03-17T06:26:02.431Z,4.43
2023-03-17T06:28:30.737Z,3.72
2023-03-17T06:30:59.696Z,3.40
2023-03-17T06:33:28.863Z,3.70
2023-03-17T06:35:58.681Z,3.58
2023-03-17T06:38:28.618Z,3.20
2023-03-17T06:40:57.950Z,3.53
2023-03-17T06:43:26.499Z,3.50
2023-03-17T06:45:55.158Z,3.78
2023-03-17T06:48:24.360Z,3.88
2023-03-17T06:50:52.799Z,3.67
2023-03-17T06:53:21.425Z,3.08
2023-03-17T06:55:51.210Z,4.40
2023-03-17T06:58:20.735Z,3.85
2023-03-17T07:00:49.961Z,3.28
2023-03-17T07:03:18.331Z,4.78
2023-03-17T07:05:46.642Z,2.95
2023-03-17T07:08:15.000Z,3.55
2023-03-17T07:10:43.705Z,3.70
2023-03-17T07:13:13.704Z,3.92
2023-03-17T07:15:43.104Z,3.00
2023-03-17T07:18:11.705Z,3.67
2023-03-17T07:20:40.083Z,3.28
2023-03-17T07:23:08.703Z,3.28
2023-03-17T07:25:37.093Z,2.53
2023-03-17T07:28:05.911Z,2.60
2023-03-17T07:30:35.683Z,2.85
2023-03-17T07:33:05.699Z,2.10
2023-03-17T07:35:34.831Z,2.08
2023-03-17T07:38:04.291Z,1.55
2023-03-17T07:40:35.247Z,1.83
2023-03-17T07:43:04.739Z,1.48
2023-03-17T07:45:35.348Z,1.42
2023-03-17T07:48:06.039Z,1.80
2023-03-17T07:50:34.787Z,1.25
2023-03-17T07:53:04.735Z,3.13
2023-03-17T07:55:33.709Z,1.85
2023-03-17T07:58:02.192Z,1.48
2023-03-17T08:00:31.287Z,1.92
2023-03-17T08:03:09.721Z,2.25
2023-03-17T08:05:41.108Z,2.25
2023-03-17T08:08:10.746Z,2.17
2023-03-17T08:10:39.665Z,2.40
2023-03-17T08:13:08.034Z,2.10
2023-03-17T08:15:36.827Z,1.83
2023-03-17T08:18:05.670Z,2.13
2023-03-17T08:20:34.998Z,1.70
2023-03-17T08:23:06.216Z,1.35
2023-03-17T08:25:34.691Z,1.40
2023-03-17T08:28:03.893Z,1.20
2023-03-17T08:30:33.813Z,1.40
2023-03-17T08:33:03.310Z,1.33
2023-03-17T08:35:32.181Z,1.23
2023-03-17T08:38:01.758Z,1.63
2023-03-17T08:40:31.894Z,1.63
2023-03-17T08:43:00.482Z,8.38
2023-03-17T08:45:29.836Z,15.20
2023-03-17T08:47:58.457Z,1.13
2023-03-17T08:50:26.986Z,1.95
2023-03-17T08:52:55.455Z,1.52
2023-03-17T08:55:23.794Z,1.95
2023-03-17T08:57:53.587Z,1.50
2023-03-17T09:00:22.815Z,1.60
2023-03-17T09:02:51.247Z,1.40
2023-03-17T09:05:20.688Z,1.75
2023-03-17T09:07:50.111Z,1.60
2023-03-17T09:10:22.570Z,1.83
2023-03-17T09:12:51.681Z,2.25
2023-03-17T09:15:23.136Z,1.58
2023-03-17T09:17:51.634Z,2.20
2023-03-17T09:20:20.587Z,1.70
2023-03-17T09:22:49.183Z,1.73
2023-03-17T09:25:17.932Z,2.30
2023-03-17T09:27:46.287Z,1.92
2023-03-17T09:30:15.276Z,1.83
2023-03-17T09:32:46.106Z,2.60
2023-03-17T09:35:14.534Z,1.67
2023-03-17T09:37:43.089Z,1.70
2023-03-17T09:40:21.194Z,2.15
2023-03-17T09:42:59.607Z,2.00
2023-03-17T09:45:33.448Z,1.88
2023-03-17T09:48:24.825Z,3.47
2023-03-17T09:50:57.695Z,2.22
2023-03-17T09:53:34.251Z,2.28
2023-03-17T09:56:09.085Z,3.15
2023-03-17T09:58:38.609Z,2.80
2023-03-17T10:01:10.393Z,2.05
2023-03-17T10:03:40.332Z,2.22
2023-03-17T10:06:32.287Z,2.17
2023-03-17T10:09:09.042Z,3.67
2023-03-17T10:11:42.486Z,1.83
2023-03-17T10:14:34.628Z,2.03
2023-03-17T10:17:11.078Z,1.95
2023-03-17T10:19:43.069Z,2.00
2023-03-17T10:22:17.802Z,2.70
2023-03-17T10:24:48.331Z,2.97
2023-03-17T10:27:18.342Z,2.05
2023-03-17T10:29:48.660Z,2.30
2023-03-17T10:32:17.490Z,2.08
2023-03-17T10:34:48.706Z,1.75
2023-03-17T10:37:20.039Z,2.05
2023-03-17T10:39:51.852Z,3.80
2023-03-17T10:42:24.628Z,1.83
2023-03-17T10:44:56.783Z,1.85
2023-03-17T10:47:32.974Z,1.60
2023-03-17T10:50:05.804Z,2.22
2023-03-17T10:52:42.193Z,2.00
2023-03-17T10:55:16.161Z,1.67
2023-03-17T10:57:53.422Z,2.22
2023-03-17T11:00:23.220Z,1.80
2023-03-17T11:02:57.630Z,2.30
2023-03-17T11:05:29.323Z,2.47
2023-03-17T11:08:10.507Z,1.98
2023-03-17T11:10:41.697Z,2.28
2023-03-17T11:13:10.443Z,2.00
2023-03-17T11:15:44.089Z,2.28
2023-03-17T11:18:19.734Z,2.33
2023-03-17T11:20:54.856Z,2.20
2023-03-17T11:23:46.291Z,2.08
2023-03-17T11:26:37.352Z,2.85
2023-03-17T11:29:22.757Z,2.15
2023-03-17T11:32:00.614Z,2.33
2023-03-17T11:34:43.559Z,1.98
2023-03-17T11:37:26.524Z,1.83
2023-03-17T11:40:02.262Z,2.00
2023-03-17T11:42:37.166Z,2.28
2023-03-17T11:45:24.499Z,1.90
2023-03-17T11:48:23.803Z,1.77
2023-03-17T11:50:57.564Z,1.75
2023-03-17T11:53:52.071Z,1.73
2023-03-17T11:56:22.955Z,1.83
2023-03-17T11:58:56.331Z,1.80
2023-03-17T12:01:32.914Z,1.67
2023-03-17T12:04:11.624Z,1.70
2023-03-17T12:06:46.060Z,1.83
2023-03-17T12:09:28.271Z,1.67
2023-03-17T12:11:58.165Z,1.70
2023-03-17T12:14:30.765Z,1.45
2023-03-17T12:17:06.323Z,2.10
2023-03-17T12:19:42.508Z,1.50
2023-03-17T12:22:21.329Z,1.65
2023-03-17T12:24:58.599Z,1.40
2023-03-17T12:27:31.124Z,1.58
2023-03-17T12:30:02.989Z,1.15
2023-03-17T12:32:42.136Z,1.88
2023-03-17T12:35:26.590Z,1.88
2023-03-17T12:37:56.334Z,1.63
2023-03-17T12:40:32.529Z,1.60
2023-03-17T12:43:18.085Z,1.40
2023-03-17T12:46:06.054Z,1.95
2023-03-17T12:49:07.328Z,2.45
2023-03-17T12:51:51.983Z,1.90
2023-03-17T12:54:22.832Z,1.92
2023-03-17T12:56:52.693Z,1.95
2023-03-17T12:59:24.165Z,2.47
2023-03-17T13:01:58.619Z,2.58
2023-03-17T13:04:30.005Z,3.13
2023-03-17T13:07:09.496Z,2.15
2023-03-17T13:09:47.150Z,2.45
2023-03-17T13:12:57.746Z,2.72
2023-03-17T13:15:46.867Z,4.22
2023-03-17T13:18:50.190Z,4.65
2023-03-17T13:21:26.529Z,5.43
2023-03-17T13:23:58.946Z,5.03
2023-03-17T13:26:57.246Z,6.70
2023-03-17T13:29:43.403Z,3.38
2023-03-17T13:32:34.083Z,2.55
2023-03-17T13:35:26.548Z,2.92
2023-03-17T13:38:22.031Z,2.25
2023-03-17T13:41:11.480Z,1.77
2023-03-17T13:43:53.580Z,1.67
2023-03-17T13:46:28.629Z,1.98
2023-03-17T13:48:57.714Z,1.77
2023-03-17T13:51:30.647Z,1.65
2023-03-17T13:54:09.131Z,1.80
2023-03-17T13:56:50.129Z,1.90
2023-03-17T13:59:19.566Z,1.67
2023-03-17T14:01:57.769Z,2.25
2023-03-17T14:04:28.195Z,1.67
2023-03-17T14:07:00.936Z,1.55
2023-03-17T14:09:36.993Z,2.38
2023-03-17T14:12:12.966Z,1.75
2023-03-17T14:14:50.411Z,1.52
2023-03-17T14:17:25.982Z,2.83
2023-03-17T14:20:09.387Z,2.53
2023-03-17T14:22:44.970Z,2.05
2023-03-17T14:25:18.250Z,2.00
2023-03-17T14:27:50.982Z,1.20
2023-03-17T14:30:22.139Z,1.45
2023-03-17T14:32:56.786Z,1.35
2023-03-17T14:35:25.604Z,1.67
2023-03-17T14:37:53.946Z,1.48
2023-03-17T14:40:24.599Z,1.83
2023-03-17T14:42:53.127Z,1.27
2023-03-17T14:45:29.187Z,1.20
2023-03-17T14:47:59.871Z,1.20
2023-03-17T14:50:31.306Z,1.10
2023-03-17T14:53:00.319Z,0.70
2023-03-17T14:55:39.948Z,1.13
2023-03-17T14:58:11.111Z,1.00
2023-03-17T15:00:46.485Z,0.98
2023-03-17T15:03:21.517Z,1.00
2023-03-17T15:05:51.320Z,0.82
2023-03-17T15:08:49.605Z,0.98
2023-03-17T15:11:27.224Z,1.33
2023-03-17T15:14:04.877Z,1.40
2023-03-17T15:16:36.654Z,1.67
2023-03-17T15:19:08.431Z,1.60
2023-03-17T15:21:41.139Z,1.02
2023-03-17T15:24:26.315Z,1.98
2023-03-17T15:27:03.151Z,2.15
2023-03-17T15:29:31.761Z,3.47
2023-03-17T15:32:15.315Z,1.40
2023-03-17T15:34:45.542Z,1.30
2023-03-17T15:37:19.370Z,1.75
2023-03-17T15:39:49.204Z,2.30
2023-03-17T15:42:21.855Z,1.77
2023-03-17T15:44:50.288Z,1.73
2023-03-17T15:47:20.954Z,2.30
2023-03-17T15:49:51.932Z,1.20
2023-03-17T15:52:24.898Z,1.80
2023-03-17T15:54:54.625Z,1.80
2023-03-17T15:57:23.114Z,2.17
2023-03-17T15:59:51.941Z,2.17
2023-03-17T16:02:32.207Z,2.08
2023-03-17T16:05:03.742Z,2.47
2023-03-17T16:07:32.364Z,2.50
2023-03-17T16:10:00.857Z,2.97
2023-03-17T16:12:29.800Z,2.58
2023-03-17T16:14:58.137Z,2.25
2023-03-17T16:17:30.058Z,2.95
2023-03-17T16:19:59.710Z,2.67
2023-03-17T16:22:42.045Z,2.97
2023-03-17T16:25:24.878Z,2.45
2023-03-17T16:27:55.125Z,3.05
2023-03-17T16:30:25.831Z,2.88
2023-03-17T16:32:55.137Z,2.92
2023-03-17T16:35:25.997Z,2.60
2023-03-17T16:37:55.998Z,2.70
2023-03-17T16:40:26.582Z,3.38
2023-03-17T16:42:55.673Z,3.20
2023-03-17T16:45:29.258Z,3.17
2023-03-17T16:47:58.668Z,2.97
2023-03-17T16:50:29.362Z,2.72
2023-03-17T16:53:00.012Z,2.75
2023-03-17T16:55:30.003Z,3.63
2023-03-17T16:58:00.804Z,3.60
2023-03-17T17:00:31.982Z,3.15
2023-03-17T17:03:00.974Z,2.80
2023-03-17T17:05:31.557Z,2.97
2023-03-17T17:08:01.773Z,3.58
2023-03-17T17:10:32.549Z,3.30
2023-03-17T17:13:01.826Z,2.90
2023-03-17T17:15:31.862Z,4.38
2023-03-17T17:18:04.613Z,4.20
2023-03-17T17:20:35.071Z,4.03
2023-03-17T17:23:06.749Z,6.05
2023-03-17T17:25:35.163Z,6.20
2023-03-17T17:28:04.117Z,6.32
2023-03-17T17:31:02.241Z,6.43
2023-03-17T17:33:31.251Z,4.32
2023-03-17T17:35:59.831Z,3.85
2023-03-17T17:38:31.074Z,3.25
2023-03-17T17:41:03.221Z,2.50
2023-03-17T17:43:32.753Z,2.13
2023-03-17T17:46:02.283Z,2.28
2023-03-17T17:48:31.317Z,2.55
2023-03-17T17:50:59.768Z,2.30
2023-03-17T17:53:30.114Z,1.58
2023-03-17T17:55:59.863Z,2.22
2023-03-17T17:58:29.703Z,3.38
2023-03-17T18:00:58.426Z,3.35
2023-03-17T18:03:27.393Z,4.90
2023-03-17T18:05:57.395Z,14.15
2023-03-17T18:08:27.081Z,17.75
2023-03-17T18:10:56.788Z,17.45
2023-03-17T18:13:27.189Z,14.95
2023-03-17T18:15:55.761Z,10.23
2023-03-17T18:18:24.269Z,5.57
2023-03-17T18:20:53.880Z,2.65
2023-03-17T18:23:23.663Z,2.70
2023-03-17T18:25:52.135Z,3.08
2023-03-17T18:28:20.496Z,2.55
2023-03-17T18:30:50.274Z,3.55
2023-03-17T18:33:20.656Z,3.08
2023-03-17T18:35:52.301Z,3.90
2023-03-17T18:38:20.711Z,3.95
2023-03-17T18:40:49.502Z,4.38
2023-03-17T18:43:17.819Z,3.75
2023-03-17T18:45:46.435Z,4.10
2023-03-17T18:48:16.292Z,3.78
2023-03-17T18:50:44.781Z,4.00
2023-03-17T18:53:13.546Z,3.88
2023-03-17T18:55:42.896Z,4.70
2023-03-17T18:58:11.627Z,7.43
2023-03-17T19:00:40.502Z,8.95
2023-03-17T19:03:09.192Z,6.03
2023-03-17T19:05:39.766Z,4.55
2023-03-17T19:08:09.654Z,4.00
2023-03-17T19:10:38.231Z,5.63
2023-03-17T19:13:10.194Z,6.97
2023-03-17T19:15:38.761Z,5.68
2023-03-17T19:18:08.668Z,5.93
2023-03-17T19:20:38.438Z,4.80
2023-03-17T19:23:08.084Z,5.82
2023-03-17T19:25:36.860Z,6.25
2023-03-17T19:28:06.487Z,7.65
2023-03-17T19:30:35.607Z,4.45
2023-03-17T19:33:04.218Z,4.43
2023-03-17T19:35:32.734Z,4.15
2023-03-17T19:38:04.097Z,4.65
2023-03-17T19:40:33.621Z,4.38
2023-03-17T19:43:03.237Z,4.25
2023-03-17T19:45:31.838Z,4.75
2023-03-17T19:48:00.764Z,5.43
2023-03-17T19:50:30.705Z,5.13
2023-03-17T19:52:59.353Z,6.05
2023-03-17T19:55:31.018Z,6.72
2023-03-17T19:57:59.899Z,6.68
2023-03-17T20:00:30.624Z,5.43
2023-03-17T20:02:59.193Z,4.57
2023-03-17T20:05:27.752Z,4.80
2023-03-17T20:07:56.399Z,5.30
2023-03-17T20:10:25.685Z,8.88
2023-03-17T20:12:55.462Z,6.45
2023-03-17T20:15:24.552Z,10.13
2023-03-17T20:17:53.078Z,4.90
2023-03-17T20:20:21.479Z,5.03
2023-03-17T20:22:49.777Z,4.68
2023-03-17T20:25:18.354Z,4.47
2023-03-17T20:27:46.694Z,5.68
2023-03-17T20:30:17.068Z,5.78
2023-03-17T20:32:45.502Z,6.18
2023-03-17T20:35:14.305Z,6.03
2023-03-17T20:37:42.793Z,6.28
2023-03-17T20:40:12.731Z,7.20
2023-03-17T20:42:41.570Z,6.18
2023-03-17T20:45:10.370Z,6.63
2023-03-17T20:47:40.160Z,7.07
2023-03-17T20:50:10.084Z,7.68
2023-03-17T20:52:38.596Z,8.93
2023-03-17T20:55:09.295Z,8.90
2023-03-17T20:57:38.082Z,10.68
2023-03-17T21:00:10.506Z,9.98
2023-03-17T21:02:41.228Z,9.98
2023-03-17T21:05:10.084Z,9.35
2023-03-17T21:07:38.681Z,9.68
2023-03-17T21:10:08.445Z,9.80
2023-03-17T21:12:37.028Z,10.38
2023-03-17T21:15:07.768Z,10.93
2023-03-17T21:17:36.283Z,9.43
2023-03-17T21:20:07.657Z,9.75
2023-03-17T21:22:36.386Z,10.27
2023-03-17T21:25:05.292Z,10.75
2023-03-17T21:27:33.985Z,11.63
2023-03-17T21:30:03.241Z,12.15
2023-03-17T21:32:31.787Z,12.40
2023-03-17T21:35:00.424Z,10.63
2023-03-17T21:37:30.433Z,11.00
2023-03-17T21:39:58.912Z,11.10
2023-03-17T21:42:27.803Z,10.00
2023-03-17T21:44:56.138Z,10.02
2023-03-17T21:47:24.580Z,9.90
2023-03-17T21:49:53.054Z,9.70
2023-03-17T21:52:22.114Z,12.00
2023-03-17T21:54:52.267Z,11.10
2023-03-17T21:57:20.841Z,10.73
2023-03-17T21:59:49.251Z,11.02
2023-03-17T22:02:17.872Z,10.32
2023-03-17T22:04:46.997Z,9.93
2023-03-17T22:07:16.578Z,10.55
2023-03-17T22:09:45.195Z,9.73
2023-03-17T22:12:15.304Z,10.45
2023-03-17T22:14:43.726Z,9.65
2023-03-17T22:17:12.239Z,9.18
2023-03-17T22:19:42.447Z,9.60
2023-03-17T22:22:14.661Z,8.65
2023-03-17T22:24:43.235Z,9.65
2023-03-17T22:27:11.604Z,9.13
2023-03-17T22:29:41.525Z,9.57
2023-03-17T22:32:10.203Z,9.70
2023-03-17T22:34:38.709Z,10.57
2023-03-17T22:37:07.758Z,10.32
2023-03-17T22:39:36.169Z,10.75
2023-03-17T22:42:05.570Z,10.07
2023-03-17T22:44:33.961Z,10.63
2023-03-17T22:47:05.046Z,11.15
2023-03-17T22:49:33.440Z,9.63
2023-03-17T22:52:01.763Z,10.50
2023-03-17T22:54:30.105Z,11.25
2023-03-17T22:56:58.400Z,11.10
2023-03-17T22:59:26.896Z,11.73
2023-03-17T23:01:55.192Z,10.73
2023-03-17T23:04:25.726Z,10.75
2023-03-17T23:06:54.201Z,11.55
2023-03-17T23:09:23.156Z,11.00
2023-03-17T23:11:52.089Z,10.57
2023-03-17T23:14:20.668Z,11.30
2023-03-17T23:16:49.322Z,12.40
2023-03-17T23:19:17.977Z,11.70
2023-03-17T23:21:48.968Z,11.68
2023-03-17T23:24:17.828Z,11.10
2023-03-17T23:26:46.410Z,10.48
2023-03-17T23:29:15.159Z,10.88
2023-03-17T23:31:43.821Z,10.93
2023-03-17T23:34:12.496Z,11.07
2023-03-17T23:36:41.152Z,10.80
2023-03-17T23:39:11.205Z,11.40
2023-03-17T23:41:39.876Z,10.30
2023-03-17T23:44:09.050Z,10.38
2023-03-17T23:46:37.691Z,10.32
2023-03-17T23:49:07.705Z,10.80
2023-03-17T23:51:36.684Z,10.35
2023-03-17T23:54:07.793Z,10.05
2023-03-17T23:56:38.282Z,10.45
2023-03-17T23:59:08.177Z,10.30
